createdAt,value
2022-08-01T00:01:33.370Z,17.80
2022-08-01T00:04:01.867Z,17.78
2022-08-01T00:06:30.691Z,17.74
2022-08-01T00:08:59.199Z,17.74
2022-08-01T00:11:27.868Z,17.73
2022-08-01T00:13:56.348Z,17.72
2022-08-01T00:16:24.798Z,17.71
2022-08-01T00:18:53.555Z,17.68
2022-08-01T00:21:22.435Z,17.65
2022-08-01T00:23:50.743Z,17.62
2022-08-01T00:26:19.211Z,17.61
2022-08-01T00:28:47.639Z,17.59
2022-08-01T00:31:15.962Z,17.59
2022-08-01T00:33:44.752Z,17.55
2022-08-01T00:36:13.286Z,17.53
2022-08-01T00:57:15.064Z,17.39
2022-08-01T00:59:43.730Z,17.39
2022-08-01T01:02:15.801Z,17.38
2022-08-01T01:04:45.421Z,17.36
2022-08-01T01:07:50.284Z,17.34
2022-08-01T01:10:45.841Z,17.35
2022-08-01T01:13:24.280Z,17.35
2022-08-01T01:16:04.727Z,17.35
2022-08-01T01:18:48.568Z,17.35
2022-08-01T01:21:22.471Z,17.35
2022-08-01T01:24:15.397Z,17.34
2022-08-01T01:26:58.767Z,17.33
2022-08-01T01:29:32.096Z,17.30
2022-08-01T01:32:47.577Z,17.28
2022-08-01T01:35:22.306Z,17.25
2022-08-01T01:37:55.483Z,17.23
2022-08-01T01:40:26.559Z,17.23
2022-08-01T01:42:57.647Z,17.22
2022-08-01T01:45:27.868Z,17.22
2022-08-01T01:47:59.674Z,17.21
2022-08-01T01:50:30.978Z,17.21
2022-08-01T01:53:02.239Z,17.20
2022-08-01T01:55:32.035Z,17.20
2022-08-01T01:58:02.499Z,17.20
2022-08-01T02:00:33.441Z,17.18
2022-08-01T02:03:07.482Z,17.18
2022-08-01T02:05:37.920Z,17.18
2022-08-01T02:08:07.759Z,17.17
2022-08-01T02:10:37.304Z,17.17
2022-08-01T02:13:07.575Z,17.13
2022-08-01T02:15:59.447Z,17.10
2022-08-01T02:18:29.266Z,17.08
2022-08-01T02:21:00.137Z,17.07
2022-08-01T02:23:33.858Z,17.03
2022-08-01T02:26:10.016Z,17.02
2022-08-01T02:28:47.941Z,17.01
2022-08-01T02:31:21.610Z,17.01
2022-08-01T02:33:58.757Z,17.01
2022-08-01T02:36:32.922Z,16.99
2022-08-01T02:39:06.215Z,16.95
2022-08-01T02:41:40.885Z,16.94
2022-08-01T02:44:11.887Z,16.94
2022-08-01T02:46:52.706Z,16.93
2022-08-01T02:49:22.717Z,16.90
2022-08-01T02:51:53.546Z,16.84
2022-08-01T02:54:23.470Z,16.77
2022-08-01T02:56:53.723Z,16.73
2022-08-01T02:59:27.506Z,16.71
2022-08-01T03:01:57.970Z,16.69
2022-08-01T03:04:30.320Z,16.65
2022-08-01T03:07:01.444Z,16.62
2022-08-01T03:09:33.089Z,16.60
2022-08-01T03:12:05.535Z,16.57
2022-08-01T03:14:37.443Z,16.54
2022-08-01T03:17:07.470Z,16.50
2022-08-01T03:19:38.871Z,16.46
2022-08-01T03:22:13.877Z,16.42
2022-08-01T03:24:45.235Z,16.41
2022-08-01T03:27:17.051Z,16.40
2022-08-01T03:29:46.811Z,16.37
2022-08-01T03:32:17.600Z,16.34
2022-08-01T03:34:46.858Z,16.32
2022-08-01T03:37:25.180Z,16.27
2022-08-01T03:40:00.463Z,16.25
2022-08-01T03:43:06.593Z,16.21
2022-08-01T03:45:38.482Z,16.17
2022-08-01T03:48:14.323Z,16.13
2022-08-01T03:50:46.750Z,16.11
2022-08-01T03:53:17.011Z,16.09
2022-08-01T03:55:45.659Z,16.06
2022-08-01T03:58:15.138Z,16.00
2022-08-01T04:00:44.209Z,15.95
2022-08-01T04:03:13.998Z,15.95
2022-08-01T04:05:43.461Z,15.93
2022-08-01T04:08:12.372Z,15.91
2022-08-01T04:10:41.019Z,15.91
2022-08-01T04:13:09.372Z,15.91
2022-08-01T04:15:37.963Z,15.90
2022-08-01T04:18:07.960Z,15.88
2022-08-01T04:20:36.636Z,15.86
2022-08-01T04:23:05.036Z,15.86
2022-08-01T04:25:36.201Z,15.86
2022-08-01T04:28:12.110Z,15.85
2022-08-01T04:30:44.110Z,15.88
2022-08-01T04:33:17.368Z,15.88
2022-08-01T04:36:01.683Z,15.89
2022-08-01T04:38:34.724Z,15.90
2022-08-01T04:41:09.318Z,15.90
2022-08-01T04:43:39.164Z,15.89
2022-08-01T04:46:09.230Z,15.91
2022-08-01T04:48:39.838Z,15.93
2022-08-01T04:51:16.423Z,16.00
2022-08-01T04:53:46.981Z,16.03
2022-08-01T04:56:15.924Z,16.17
2022-08-01T04:58:44.864Z,16.32
2022-08-01T05:01:13.678Z,16.45
2022-08-01T05:03:42.660Z,16.51
2022-08-01T05:06:11.045Z,16.71
2022-08-01T05:08:39.419Z,16.90
2022-08-01T05:11:07.832Z,16.95
2022-08-01T05:13:36.833Z,17.00
2022-08-01T05:16:05.320Z,16.98
2022-08-01T05:18:33.835Z,16.88
2022-08-01T05:21:03.597Z,16.81
2022-08-01T05:23:43.185Z,16.75
2022-08-01T05:26:14.533Z,16.75
2022-08-01T05:28:43.660Z,16.76
2022-08-01T05:31:11.982Z,16.77
2022-08-01T05:33:40.282Z,16.77
2022-08-01T05:36:09.081Z,16.83
2022-08-01T05:38:37.483Z,17.03
2022-08-01T05:41:05.825Z,17.21
2022-08-01T05:43:36.304Z,17.30
2022-08-01T05:46:04.719Z,17.28
2022-08-01T05:48:33.319Z,17.28
2022-08-01T05:51:02.415Z,17.30
2022-08-01T05:53:31.244Z,17.22
2022-08-01T05:55:59.619Z,17.10
2022-08-01T05:58:28.211Z,17.06
2022-08-01T06:00:56.600Z,17.01
2022-08-01T06:03:25.133Z,16.93
2022-08-01T06:05:54.083Z,16.87
2022-08-01T06:08:23.326Z,16.82
2022-08-01T06:10:52.060Z,16.76
2022-08-01T06:13:20.630Z,16.72
2022-08-01T06:15:49.565Z,16.69
2022-08-01T06:18:20.154Z,16.65
2022-08-01T06:20:48.555Z,16.69
2022-08-01T06:23:31.946Z,16.71
2022-08-01T06:26:02.184Z,16.72
2022-08-01T06:28:30.636Z,16.68
2022-08-01T06:31:00.181Z,16.67
2022-08-01T06:33:29.443Z,16.69
2022-08-01T06:35:57.918Z,16.70
2022-08-01T06:38:26.383Z,16.71
2022-08-01T06:40:54.810Z,16.69
2022-08-01T06:43:23.176Z,16.68
2022-08-01T06:45:51.590Z,16.69
2022-08-01T06:48:20.061Z,16.69
2022-08-01T06:50:48.390Z,16.72
2022-08-01T06:53:16.764Z,16.75
2022-08-01T06:55:45.258Z,16.76
2022-08-01T06:58:13.567Z,16.85
2022-08-01T07:00:43.569Z,16.90
2022-08-01T07:03:12.016Z,16.99
2022-08-01T07:05:40.423Z,17.11
2022-08-01T07:08:08.878Z,17.27
2022-08-01T07:10:37.249Z,17.44
2022-08-01T07:13:07.718Z,17.54
2022-08-01T07:15:36.266Z,17.61
2022-08-01T07:18:05.886Z,17.60
2022-08-01T07:20:50.407Z,17.62
2022-08-01T07:23:22.752Z,17.62
2022-08-01T07:26:04.678Z,17.65
2022-08-01T07:28:33.121Z,17.74
2022-08-01T07:31:01.631Z,17.88
2022-08-01T07:33:48.738Z,18.04
2022-08-01T07:36:18.447Z,18.21
2022-08-01T07:38:48.801Z,18.37
2022-08-01T07:41:17.134Z,18.40
2022-08-01T07:43:56.078Z,18.47
2022-08-01T07:46:26.588Z,18.57
2022-08-01T07:48:54.942Z,18.50
2022-08-01T07:51:23.290Z,18.47
2022-08-01T07:53:51.722Z,18.42
2022-08-01T07:56:25.069Z,18.43
2022-08-01T07:58:53.425Z,18.40
2022-08-01T08:01:22.122Z,18.40
2022-08-01T08:03:50.562Z,18.39
2022-08-01T08:06:18.973Z,18.46
2022-08-01T08:08:47.320Z,18.49
2022-08-01T08:11:15.772Z,18.49
2022-08-01T08:13:44.153Z,18.50
2022-08-01T08:16:12.531Z,18.56
2022-08-01T08:18:40.888Z,18.56
2022-08-01T08:21:09.339Z,18.61
2022-08-01T08:23:56.208Z,18.61
2022-08-01T08:26:25.376Z,18.63
2022-08-01T08:28:53.732Z,18.64
2022-08-01T08:31:24.954Z,18.62
2022-08-01T08:33:57.568Z,18.62
2022-08-01T08:36:31.519Z,18.59
2022-08-01T08:39:03.563Z,18.49
2022-08-01T08:41:38.064Z,18.49
2022-08-01T08:44:10.408Z,18.48
2022-08-01T08:46:44.846Z,18.42
2022-08-01T08:49:17.241Z,18.42
2022-08-01T08:51:50.087Z,18.44
2022-08-01T08:54:29.534Z,18.43
2022-08-01T08:57:01.397Z,18.41
2022-08-01T08:59:30.241Z,18.38
2022-08-01T09:02:00.005Z,18.46
2022-08-01T09:04:31.159Z,18.56
2022-08-01T09:06:59.849Z,18.62
2022-08-01T09:09:30.608Z,18.57
2022-08-01T09:11:59.707Z,18.66
2022-08-01T09:14:31.250Z,18.75
2022-08-01T09:17:07.565Z,18.76
2022-08-01T09:19:41.887Z,18.77
2022-08-01T09:22:13.344Z,18.81
2022-08-01T09:24:42.749Z,18.80
2022-08-01T09:27:22.253Z,18.74
2022-08-01T09:30:00.447Z,18.79
2022-08-01T09:32:36.018Z,18.88
2022-08-01T09:35:31.206Z,18.99
2022-08-01T09:38:31.314Z,19.02
2022-08-01T09:41:02.000Z,19.11
2022-08-01T09:43:32.481Z,19.18
2022-08-01T09:46:07.056Z,19.21
2022-08-01T09:49:07.302Z,19.09
2022-08-01T09:52:00.013Z,19.02
2022-08-01T09:54:31.321Z,19.01
2022-08-01T09:57:17.061Z,18.93
2022-08-01T09:59:58.395Z,18.92
2022-08-01T10:02:33.229Z,18.90
2022-08-01T10:05:08.937Z,18.87
2022-08-01T10:07:58.998Z,18.79
2022-08-01T10:10:28.963Z,18.78
2022-08-01T10:13:02.390Z,18.85
2022-08-01T10:15:36.742Z,18.88
2022-08-01T10:18:16.380Z,18.85
2022-08-01T10:20:50.497Z,18.86
2022-08-01T10:23:19.979Z,18.81
2022-08-01T10:25:52.527Z,18.74
2022-08-01T10:28:26.461Z,18.85
2022-08-01T10:30:55.799Z,18.94
2022-08-01T10:33:51.548Z,18.98
2022-08-01T10:36:13.990Z,19.06
2022-08-01T10:38:42.433Z,19.14
2022-08-01T10:41:16.851Z,19.07
2022-08-01T10:43:45.538Z,18.96
2022-08-01T10:46:16.348Z,18.96
2022-08-01T10:48:48.948Z,18.99
2022-08-01T10:51:51.155Z,19.13
2022-08-01T10:54:13.560Z,19.25
2022-08-01T10:56:51.468Z,19.30
2022-08-01T10:59:29.166Z,19.24
2022-08-01T11:02:33.562Z,19.25
2022-08-01T11:05:14.581Z,19.27
2022-08-01T11:07:53.344Z,19.34
2022-08-01T11:10:41.415Z,19.39
2022-08-01T11:13:13.479Z,19.46
2022-08-01T11:15:50.358Z,19.59
2022-08-01T11:18:30.837Z,19.70
2022-08-01T11:21:57.178Z,19.65
2022-08-01T11:23:54.475Z,19.65
2022-08-01T11:26:29.903Z,19.64
2022-08-01T11:29:21.883Z,19.70
2022-08-01T11:31:51.438Z,19.65
2022-08-01T11:34:19.967Z,19.62
2022-08-01T11:37:03.721Z,19.62
2022-08-01T11:39:36.839Z,19.66
2022-08-01T11:42:19.619Z,19.78
2022-08-01T11:44:52.445Z,19.94
2022-08-01T11:47:50.422Z,20.01
2022-08-01T11:50:32.993Z,19.91
2022-08-01T11:53:08.830Z,19.83
2022-08-01T11:55:47.656Z,19.79
2022-08-01T11:58:29.361Z,19.85
2022-08-01T12:00:59.532Z,19.89
2022-08-01T12:03:33.442Z,19.78
2022-08-01T12:06:03.086Z,19.75
2022-08-01T12:08:37.901Z,19.79
2022-08-01T12:11:06.944Z,19.88
2022-08-01T12:13:44.061Z,19.98
2022-08-01T12:16:13.053Z,20.12
2022-08-01T12:18:43.659Z,20.25
2022-08-01T12:21:11.927Z,20.23
2022-08-01T12:23:40.304Z,20.24
2022-08-01T12:26:08.742Z,20.32
2022-08-01T12:28:57.009Z,20.37
2022-08-01T12:31:33.314Z,20.36
2022-08-01T12:34:31.318Z,20.31
2022-08-01T12:37:03.664Z,20.33
2022-08-01T12:39:36.150Z,20.28
2022-08-01T12:42:11.647Z,20.21
2022-08-01T12:44:41.406Z,20.20
2022-08-01T12:47:11.636Z,20.25
2022-08-01T12:49:42.811Z,20.32
2022-08-01T12:52:13.460Z,20.35
2022-08-01T12:55:02.038Z,20.31
2022-08-01T12:57:30.866Z,20.30
2022-08-01T13:00:26.215Z,20.35
2022-08-01T13:03:09.150Z,20.13
2022-08-01T13:05:52.397Z,19.99
2022-08-01T13:08:24.743Z,19.86
2022-08-01T13:11:02.982Z,19.82
2022-08-01T13:13:52.744Z,19.90
2022-08-01T13:16:30.692Z,19.86
2022-08-01T13:19:07.398Z,19.87
2022-08-01T13:21:53.811Z,19.83
2022-08-01T13:24:28.343Z,19.89
2022-08-01T13:27:04.154Z,19.95
2022-08-01T13:29:42.546Z,19.86
2022-08-01T13:32:27.954Z,19.88
2022-08-01T13:35:10.811Z,19.78
2022-08-01T13:37:40.101Z,19.82
2022-08-01T13:40:11.535Z,19.92
2022-08-01T13:42:39.895Z,20.01
2022-08-01T13:45:13.720Z,20.09
2022-08-01T13:48:04.170Z,20.12
2022-08-01T13:50:34.310Z,20.28
2022-08-01T13:53:03.586Z,20.30
2022-08-01T13:55:35.172Z,20.22
2022-08-01T13:58:03.873Z,20.17
2022-08-01T14:00:32.886Z,20.11
2022-08-01T14:03:01.859Z,20.03
2022-08-01T14:05:31.345Z,19.95
2022-08-01T14:08:02.371Z,19.93
2022-08-01T14:10:30.706Z,19.94
2022-08-01T14:13:00.064Z,20.01
2022-08-01T14:15:37.652Z,20.10
2022-08-01T14:18:09.938Z,20.23
2022-08-01T14:20:40.394Z,20.33
2022-08-01T14:23:10.078Z,20.41
2022-08-01T14:26:03.130Z,20.33
2022-08-01T14:28:29.785Z,20.14
2022-08-01T14:30:59.003Z,20.15
2022-08-01T14:33:27.627Z,20.19
2022-08-01T14:36:06.000Z,20.14
2022-08-01T14:38:46.489Z,20.21
2022-08-01T14:41:15.912Z,20.18
2022-08-01T14:43:44.356Z,20.17
2022-08-01T14:46:13.724Z,20.14
2022-08-01T14:48:42.663Z,20.19
2022-08-01T14:51:11.147Z,20.22
2022-08-01T14:53:42.892Z,20.22
2022-08-01T14:56:15.083Z,20.19
2022-08-01T14:58:43.552Z,20.17
2022-08-01T15:01:12.141Z,20.14
2022-08-01T15:03:41.897Z,20.09
2022-08-01T15:06:12.603Z,20.09
2022-08-01T15:08:41.279Z,20.06
2022-08-01T15:11:10.050Z,19.96
2022-08-01T15:13:42.416Z,19.88
2022-08-01T15:16:12.301Z,19.88
2022-08-01T15:18:42.846Z,19.78
2022-08-01T15:21:40.869Z,19.75
2022-08-01T15:24:10.549Z,19.72
2022-08-01T15:26:42.286Z,19.72
2022-08-01T15:29:17.375Z,19.71
2022-08-01T15:31:46.698Z,19.68
2022-08-01T15:34:15.339Z,19.59
2022-08-01T15:36:58.244Z,19.59
2022-08-01T15:39:28.822Z,19.51
2022-08-01T15:42:00.223Z,19.39
2022-08-01T15:44:28.699Z,19.36
2022-08-01T15:46:59.219Z,19.24
2022-08-01T15:49:27.856Z,19.12
2022-08-01T15:51:56.363Z,19.01
2022-08-01T15:54:26.666Z,18.92
2022-08-01T15:56:55.132Z,18.89
2022-08-01T15:59:23.936Z,18.84
2022-08-01T16:01:52.725Z,18.84
2022-08-01T16:04:21.379Z,18.84
2022-08-01T16:06:55.425Z,18.84
2022-08-01T16:09:24.144Z,18.87
2022-08-01T16:11:52.790Z,18.83
2022-08-01T16:14:21.959Z,18.78
2022-08-01T16:16:50.448Z,18.74
2022-08-01T16:19:19.571Z,18.70
2022-08-01T16:21:48.167Z,18.66
2022-08-01T16:24:16.966Z,18.56
2022-08-01T16:26:45.296Z,18.48
2022-08-01T16:29:13.722Z,18.40
2022-08-01T16:32:04.700Z,18.34
2022-08-01T16:34:30.656Z,18.27
2022-08-01T16:36:59.075Z,18.26
2022-08-01T16:39:33.989Z,18.25
2022-08-01T16:42:03.722Z,18.25
2022-08-01T16:44:33.928Z,18.24
2022-08-01T16:47:05.276Z,18.18
2022-08-01T16:49:34.111Z,18.17
2022-08-01T16:52:05.102Z,18.14
2022-08-01T16:54:33.700Z,18.15
2022-08-01T16:57:08.217Z,18.16
2022-08-01T16:59:41.747Z,18.13
2022-08-01T17:02:11.266Z,18.10
2022-08-01T17:04:39.853Z,18.08
2022-08-01T17:07:08.624Z,18.07
2022-08-01T17:09:43.185Z,18.00
2022-08-01T17:12:13.961Z,17.94
2022-08-01T17:14:51.767Z,17.92
2022-08-01T17:17:25.097Z,17.84
2022-08-01T17:19:53.969Z,17.77
2022-08-01T17:22:22.785Z,17.72
2022-08-01T17:24:52.025Z,17.73
2022-08-01T17:27:20.525Z,17.75
2022-08-01T17:29:48.976Z,17.75
2022-08-01T17:32:17.652Z,17.77
2022-08-01T17:34:46.111Z,17.75
2022-08-01T17:37:14.570Z,17.74
2022-08-01T17:39:43.310Z,17.72
2022-08-01T17:42:12.982Z,17.69
2022-08-01T17:44:41.592Z,17.69
2022-08-01T17:47:34.407Z,17.70
2022-08-01T17:50:06.782Z,17.67
2022-08-01T17:52:35.831Z,17.67
2022-08-01T17:55:05.330Z,17.66
2022-08-01T17:57:55.226Z,17.60
2022-08-01T18:00:23.620Z,17.57
2022-08-01T18:02:51.963Z,17.53
2022-08-01T18:05:20.715Z,17.52
2022-08-01T18:08:07.477Z,17.50
2022-08-01T18:10:40.000Z,17.47
2022-08-01T18:13:10.477Z,17.46
2022-08-01T18:15:39.096Z,17.42
2022-08-01T18:18:07.749Z,17.38
2022-08-01T18:20:36.853Z,17.32
2022-08-01T18:23:08.879Z,17.32
2022-08-01T18:25:38.208Z,17.28
2022-08-01T18:28:22.751Z,17.23
2022-08-01T18:30:57.581Z,17.21
2022-08-01T18:33:25.914Z,17.18
2022-08-01T18:35:54.547Z,17.17
2022-08-01T18:38:24.257Z,17.13
2022-08-01T18:40:54.467Z,17.11
2022-08-01T18:43:22.840Z,17.10
2022-08-01T18:45:51.261Z,17.06
2022-08-01T18:48:20.178Z,17.02
2022-08-01T18:50:49.343Z,16.98
2022-08-01T18:53:18.865Z,16.92
2022-08-01T18:55:47.530Z,16.90
2022-08-01T18:58:16.039Z,16.87
2022-08-01T19:00:44.452Z,16.81
2022-08-01T19:03:13.770Z,16.77
2022-08-01T19:05:43.084Z,16.71
2022-08-01T19:08:12.650Z,16.66
2022-08-01T19:10:42.325Z,16.60
2022-08-01T19:13:10.997Z,16.54
2022-08-01T19:15:39.372Z,16.50
2022-08-01T19:18:09.479Z,16.43
2022-08-01T19:20:38.965Z,16.36
2022-08-01T19:23:25.858Z,16.27
2022-08-01T19:25:57.329Z,16.16
2022-08-01T19:28:27.072Z,16.07
2022-08-01T19:30:56.713Z,15.99
2022-08-01T19:33:31.847Z,15.90
2022-08-01T19:36:00.696Z,15.83
2022-08-01T19:38:30.116Z,15.76
2022-08-01T19:40:59.305Z,15.68
2022-08-01T19:43:28.100Z,15.61
2022-08-01T19:45:57.022Z,15.52
2022-08-01T19:48:25.725Z,15.45
2022-08-01T19:50:55.312Z,15.39
2022-08-01T19:53:25.037Z,15.33
2022-08-01T19:55:53.963Z,15.25
2022-08-01T19:58:27.326Z,15.20
2022-08-01T20:00:57.645Z,15.14
2022-08-01T20:03:28.418Z,15.10
2022-08-01T20:05:56.969Z,15.04
2022-08-01T20:08:26.354Z,14.98
2022-08-01T20:10:55.395Z,14.93
2022-08-01T20:13:24.089Z,14.91
2022-08-01T20:15:52.937Z,14.87
2022-08-01T20:18:22.135Z,14.81
2022-08-01T20:20:53.078Z,14.77
2022-08-01T20:23:24.549Z,14.72
2022-08-01T20:26:00.262Z,14.67
2022-08-01T20:28:29.653Z,14.62
2022-08-01T20:31:05.341Z,14.57
2022-08-01T20:33:39.454Z,14.54
2022-08-01T20:36:12.445Z,14.51
2022-08-01T20:38:56.553Z,14.47
2022-08-01T20:41:27.284Z,14.43
2022-08-01T20:43:59.726Z,14.37
2022-08-01T20:46:29.283Z,14.32
2022-08-01T20:48:58.880Z,14.29
2022-08-01T20:51:29.086Z,14.27
2022-08-01T20:53:58.544Z,14.26
2022-08-01T20:56:43.688Z,14.21
2022-08-01T20:59:40.057Z,14.18
2022-08-01T21:02:55.274Z,14.14
2022-08-01T21:05:31.737Z,14.12
2022-08-01T21:08:07.682Z,14.09
2022-08-01T21:10:37.346Z,14.04
2022-08-01T21:13:08.354Z,14.03
2022-08-01T21:16:21.964Z,14.00
2022-08-01T21:19:18.132Z,13.94
2022-08-01T21:22:10.760Z,13.90
2022-08-01T21:25:05.373Z,13.87
2022-08-01T21:27:35.390Z,13.82
2022-08-01T21:30:07.762Z,13.81
2022-08-01T21:32:37.906Z,13.79
2022-08-01T21:35:15.666Z,13.76
2022-08-01T21:37:47.945Z,13.74
2022-08-01T21:40:35.703Z,13.72
2022-08-01T21:43:06.878Z,13.70
2022-08-01T21:45:38.232Z,13.68
2022-08-01T21:48:30.949Z,13.67
2022-08-01T21:51:11.057Z,13.65
2022-08-01T21:53:45.194Z,13.64
2022-08-01T21:56:31.356Z,13.62
2022-08-01T21:59:20.864Z,13.61
2022-08-01T22:01:59.418Z,13.60
2022-08-01T22:04:41.177Z,13.60
2022-08-01T22:07:14.942Z,13.58
2022-08-01T22:09:48.677Z,13.56
2022-08-01T22:12:18.933Z,13.54
2022-08-01T22:14:50.163Z,13.52
2022-08-01T22:17:25.147Z,13.49
2022-08-01T22:19:56.422Z,13.47
2022-08-01T22:22:44.279Z,13.45
2022-08-01T22:25:15.994Z,13.42
2022-08-01T22:28:06.363Z,13.39
2022-08-01T22:30:36.040Z,13.36
2022-08-01T22:33:08.038Z,13.31
2022-08-01T22:35:47.587Z,13.30
2022-08-01T22:38:21.079Z,13.29
2022-08-01T22:40:59.924Z,13.28
2022-08-01T22:43:41.822Z,13.27
2022-08-01T22:46:33.499Z,13.26
2022-08-01T22:49:09.345Z,13.24
2022-08-01T22:51:41.366Z,13.21
2022-08-01T22:54:15.248Z,13.18
2022-08-01T22:56:56.046Z,13.16
2022-08-01T22:59:41.808Z,13.15
2022-08-01T23:02:15.590Z,13.15
2022-08-01T23:04:48.028Z,13.14
2022-08-01T23:07:23.587Z,13.13
2022-08-01T23:09:55.248Z,13.12
2022-08-01T23:12:26.146Z,13.10
2022-08-01T23:14:55.665Z,13.07
2022-08-01T23:17:31.338Z,13.05
2022-08-01T23:20:06.907Z,13.02
2022-08-01T23:22:37.346Z,13.01
2022-08-01T23:25:16.323Z,13.01
2022-08-01T23:28:03.747Z,13.01
2022-08-01T23:30:38.426Z,12.98
2022-08-01T23:33:07.436Z,12.97
2022-08-01T23:35:39.094Z,12.97
2022-08-01T23:38:10.094Z,12.97
2022-08-01T23:40:39.422Z,12.97
2022-08-01T23:43:16.848Z,12.98
2022-08-01T23:46:02.070Z,12.98
2022-08-01T23:48:37.533Z,12.96
2022-08-01T23:51:07.029Z,12.96
2022-08-01T23:53:37.621Z,12.97
2022-08-01T23:56:07.136Z,12.98
2022-08-01T23:58:35.682Z,12.99
